»·PEaware :: N515ZT KSBA-KSAN

N515ZT :: KSBA-KSAN

FLIGHT INFORMATION

Flight Status: Arrived
Operator: Privately registered:
United States
More flights under this callsign
Pilot: Marty P. (27464)
Aircraft: BEECH AIRCRAFT BARON
(BE58)
More flights by this aircraft type
Origin: KSBA Santa Barbara Mun
United States
Destination: KSAN San Diego Intl-Lindbergh
United States
More flights between these airports :: More routes between these airports
Route: +
File this flight plan on PilotEdge
Remarks:
Altitude:
(Current/Filed)
0ft
Speed:
(Current/Filed)
0kts
Departed: 02-Feb-20 11:40 AM
Arrived: 02-Feb-20 12:41 PM
Distance/Time
Traveled:
166nm/1:01
Distance/Time
To Go:
Arrived

Flight Plot

Page will automatically refresh every two minutes.

Flight plan parsing failed; only flown route is shown


Map Options




Map Legend


Flown Route
Filed Route
Departure Airport
Arrival Airport
Navaid (VOR, NDB)
Fix

Horizontal Profiles

Position Reports

Time Latitude Longitude Heading Altitude Ground
Speed
02-Feb-20 11:33 34.432566 -119.835098 71 14ft 0kts
02-Feb-20 11:34 34.432566 -119.835098 71 14ft 0kts
02-Feb-20 11:35 34.432566 -119.835098 71 14ft 0kts
02-Feb-20 11:36 34.431651 -119.836590 250 14ft 14kts
02-Feb-20 11:37 34.430710 -119.839733 247 14ft 0kts
02-Feb-20 11:38 34.430679 -119.839824 248 14ft 6kts
02-Feb-20 11:39 34.415452 -119.835257 161 193ft 123kts
02-Feb-20 11:40 34.379932 -119.822190 134 1222ft 138kts
02-Feb-20 11:41 34.368421 -119.774699 100 2025ft 144kts
02-Feb-20 11:42 34.347467 -119.733260 126 2919ft 151kts
02-Feb-20 11:43 34.319899 -119.695005 132 4058ft 143kts
02-Feb-20 11:44 34.295522 -119.661487 134 5412ft 126kts
02-Feb-20 11:45 34.273438 -119.631163 136 6636ft 117kts
02-Feb-20 11:46 34.251124 -119.600642 137 7597ft 125kts
02-Feb-20 11:47 34.228183 -119.569184 138 8538ft 124kts
02-Feb-20 11:48 34.205258 -119.537823 138 9337ft 124kts
02-Feb-20 11:49 34.182367 -119.506529 139 9995ft 126kts
02-Feb-20 11:50 34.158141 -119.473445 138 10771ft 135kts
02-Feb-20 11:51 34.134157 -119.440618 139 11728ft 127kts
02-Feb-20 11:52 34.110233 -119.408053 139 12523ft 132kts
02-Feb-20 11:53 34.085882 -119.374806 140 13283ft 132kts
02-Feb-20 11:54 34.059578 -119.339293 139 13521ft 164kts
02-Feb-20 11:55 34.027755 -119.295965 138 13513ft 181kts
02-Feb-20 11:56 33.993876 -119.249932 137 13519ft 187kts
02-Feb-20 11:57 33.958238 -119.201581 137 13522ft 196kts
02-Feb-20 11:58 33.921512 -119.151844 136 13524ft 199kts
02-Feb-20 11:59 33.884622 -119.101924 136 13526ft 200kts
02-Feb-20 12:00 33.847492 -119.051778 136 13527ft 200kts
02-Feb-20 12:01 33.810337 -119.001669 136 13526ft 201kts
02-Feb-20 12:02 33.773100 -118.951526 136 13524ft 201kts
02-Feb-20 12:03 33.746007 -118.893723 154 13523ft 195kts
02-Feb-20 12:04 33.702237 -118.854099 139 13527ft 200kts
02-Feb-20 12:05 33.663648 -118.804372 136 13533ft 202kts
02-Feb-20 12:06 33.626010 -118.754130 136 13540ft 202kts
02-Feb-20 12:07 33.588442 -118.703904 136 13539ft 203kts
02-Feb-20 12:08 33.550839 -118.653687 136 13536ft 203kts
02-Feb-20 12:09 33.513048 -118.603300 136 13537ft 203kts
02-Feb-20 12:10 33.475163 -118.552856 136 13528ft 203kts
02-Feb-20 12:11 33.437248 -118.502433 136 13528ft 203kts
02-Feb-20 12:12 33.399391 -118.452182 136 13528ft 203kts
02-Feb-20 12:13 33.372887 -118.392758 104 13529ft 210kts
02-Feb-20 12:14 33.363141 -118.327585 101 13525ft 210kts
02-Feb-20 12:15 33.353993 -118.258480 101 13515ft 209kts
02-Feb-20 12:16 33.344941 -118.189763 101 13517ft 209kts
02-Feb-20 12:17 33.335850 -118.120952 101 13516ft 209kts
02-Feb-20 12:18 33.326731 -118.052220 101 13517ft 209kts
02-Feb-20 12:19 33.317588 -117.983609 101 13518ft 209kts
02-Feb-20 12:20 33.307344 -117.907478 100 12302ft 239kts
02-Feb-20 12:21 33.296892 -117.829516 100 10855ft 235kts
02-Feb-20 12:22 33.286619 -117.753434 100 9419ft 229kts
02-Feb-20 12:23 33.276560 -117.679403 100 8016ft 223kts
02-Feb-20 12:24 33.266986 -117.609136 100 6919ft 207kts
02-Feb-20 12:25 33.257467 -117.539830 100 5906ft 213kts
02-Feb-20 12:26 33.248178 -117.472055 100 5515ft 200kts
02-Feb-20 12:27 33.217844 -117.418945 139 5294ft 194kts
02-Feb-20 12:28 33.171096 -117.386884 157 4118ft 201kts
02-Feb-20 12:29 33.119460 -117.362933 159 3506ft 193kts
02-Feb-20 12:30 33.070415 -117.340822 160 3761ft 178kts
02-Feb-20 12:31 33.021951 -117.319054 160 3522ft 199kts
02-Feb-20 12:32 32.971211 -117.296191 160 3509ft 193kts
02-Feb-20 12:33 32.921009 -117.273643 160 3514ft 192kts
02-Feb-20 12:34 32.870994 -117.251205 160 3518ft 192kts
02-Feb-20 12:35 32.820808 -117.228709 160 3521ft 192kts
02-Feb-20 12:36 32.776101 -117.199300 147 2754ft 163kts
02-Feb-20 12:37 32.750986 -117.159307 118 1487ft 123kts
02-Feb-20 12:38 32.729408 -117.146834 258 1255ft 142kts
02-Feb-20 12:39 32.731926 -117.183235 284 18ft 71kts
02-Feb-20 12:40 32.732416 -117.188744 241 18ft 1kts
02-Feb-20 12:41 32.733672 -117.194428 285 18ft 23kts
02-Feb-20 12:42 32.735575 -117.202281 286 18ft 25kts
02-Feb-20 12:43 32.733848 -117.207878 213 18ft 15kts
02-Feb-20 12:44 32.733084 -117.207637 51 18ft 0kts
02-Feb-20 12:45 32.733084 -117.207637 51 18ft 0kts
02-Feb-20 12:46 32.733084 -117.207637 51 18ft 0kts
02-Feb-20 12:47 32.733084 -117.207637 51 18ft 0kts
02-Feb-20 12:48 32.733084 -117.207637 51 18ft 0kts

Navigation Log

Ident Type
Flight plan parsing failed, navigation log unavailable